sensor_id;sensor_type;location;lat;lon;timestamp;P1;durP1;ratioP1;P2;durP2;ratioP2
58017;SDS011;43810;50.860;19.226;2022-10-28T00:01:00;101.30;;;44.10;;
58017;SDS011;43810;50.860;19.226;2022-10-28T00:03:32;104.60;;;44.78;;
58017;SDS011;43810;50.860;19.226;2022-10-28T00:06:04;106.65;;;45.70;;
58017;SDS011;43810;50.860;19.226;2022-10-28T00:08:32;99.80;;;43.65;;
58017;SDS011;43810;50.860;19.226;2022-10-28T00:13:42;104.53;;;45.08;;
58017;SDS011;43810;50.860;19.226;2022-10-28T00:16:10;105.43;;;43.92;;
58017;SDS011;43810;50.860;19.226;2022-10-28T00:18:40;109.72;;;45.58;;
58017;SDS011;43810;50.860;19.226;2022-10-28T00:21:08;101.32;;;44.25;;
58017;SDS011;43810;50.860;19.226;2022-10-28T00:23:37;114.20;;;45.50;;
58017;SDS011;43810;50.860;19.226;2022-10-28T00:26:05;112.07;;;45.88;;
58017;SDS011;43810;50.860;19.226;2022-10-28T00:28:32;102.63;;;43.33;;
58017;SDS011;43810;50.860;19.226;2022-10-28T00:31:04;108.85;;;45.05;;
58017;SDS011;43810;50.860;19.226;2022-10-28T00:36:06;111.20;;;43.50;;
58017;SDS011;43810;50.860;19.226;2022-10-28T00:38:33;107.10;;;42.20;;
58017;SDS011;43810;50.860;19.226;2022-10-28T00:40:58;112.53;;;45.35;;
58017;SDS011;43810;50.860;19.226;2022-10-28T00:49:04;103.78;;;44.50;;
58017;SDS011;43810;50.860;19.226;2022-10-28T00:51:37;107.20;;;44.42;;
58017;SDS011;43810;50.860;19.226;2022-10-28T00:54:04;98.10;;;41.95;;
58017;SDS011;43810;50.860;19.226;2022-10-28T00:56:31;96.13;;;40.33;;
58017;SDS011;43810;50.860;19.226;2022-10-28T00:59:02;107.82;;;44.05;;
58017;SDS011;43810;50.860;19.226;2022-10-28T01:01:31;101.25;;;43.97;;
58017;SDS011;43810;50.860;19.226;2022-10-28T01:03:57;105.22;;;44.22;;
58017;SDS011;43810;50.860;19.226;2022-10-28T01:06:25;91.68;;;39.50;;
58017;SDS011;43810;50.860;19.226;2022-10-28T01:08:53;92.20;;;40.85;;
58017;SDS011;43810;50.860;19.226;2022-10-28T01:15:09;93.63;;;40.75;;
58017;SDS011;43810;50.860;19.226;2022-10-28T01:39:50;86.78;;;38.72;;
58017;SDS011;43810;50.860;19.226;2022-10-28T01:42:25;106.35;;;41.13;;
58017;SDS011;43810;50.860;19.226;2022-10-28T01:45:02;98.35;;;40.97;;
58017;SDS011;43810;50.860;19.226;2022-10-28T01:47:38;88.90;;;37.95;;
58017;SDS011;43810;50.860;19.226;2022-10-28T01:50:15;87.00;;;37.22;;
58017;SDS011;43810;50.860;19.226;2022-10-28T01:52:47;81.90;;;35.35;;
58017;SDS011;43810;50.860;19.226;2022-10-28T01:55:20;85.15;;;38.58;;
58017;SDS011;43810;50.860;19.226;2022-10-28T01:57:51;80.80;;;34.35;;
58017;SDS011;43810;50.860;19.226;2022-10-28T02:00:19;80.43;;;35.42;;
58017;SDS011;43810;50.860;19.226;2022-10-28T02:02:45;77.20;;;33.38;;
58017;SDS011;43810;50.860;19.226;2022-10-28T02:08:03;77.93;;;36.88;;
58017;SDS011;43810;50.860;19.226;2022-10-28T02:13:59;73.00;;;31.52;;
58017;SDS011;43810;50.860;19.226;2022-10-28T02:16:40;73.05;;;32.90;;
58017;SDS011;43810;50.860;19.226;2022-10-28T02:27:28;71.15;;;31.27;;
58017;SDS011;43810;50.860;19.226;2022-10-28T02:32:51;69.10;;;32.33;;
58017;SDS011;43810;50.860;19.226;2022-10-28T02:35:24;63.28;;;31.17;;
58017;SDS011;43810;50.860;19.226;2022-10-28T02:37:55;64.55;;;31.10;;
58017;SDS011;43810;50.860;19.226;2022-10-28T02:40:26;65.25;;;31.40;;
58017;SDS011;43810;50.860;19.226;2022-10-28T02:42:55;62.80;;;30.20;;
58017;SDS011;43810;50.860;19.226;2022-10-28T02:45:25;64.60;;;31.48;;
58017;SDS011;43810;50.860;19.226;2022-10-28T02:47:59;65.88;;;30.48;;
58017;SDS011;43810;50.860;19.226;2022-10-28T02:50:33;60.47;;;29.35;;
58017;SDS011;43810;50.860;19.226;2022-10-28T02:53:03;68.47;;;30.92;;
58017;SDS011;43810;50.860;19.226;2022-10-28T02:55:37;64.70;;;28.40;;
58017;SDS011;43810;50.860;19.226;2022-10-28T02:58:06;70.22;;;31.13;;
58017;SDS011;43810;50.860;19.226;2022-10-28T03:00:32;59.80;;;28.85;;
58017;SDS011;43810;50.860;19.226;2022-10-28T03:02:58;59.80;;;28.42;;
58017;SDS011;43810;50.860;19.226;2022-10-28T03:05:24;57.38;;;30.58;;
58017;SDS011;43810;50.860;19.226;2022-10-28T03:07:49;63.30;;;29.30;;
58017;SDS011;43810;50.860;19.226;2022-10-28T03:10:15;62.40;;;29.08;;
58017;SDS011;43810;50.860;19.226;2022-10-28T03:12:41;59.15;;;29.05;;
58017;SDS011;43810;50.860;19.226;2022-10-28T03:15:07;64.15;;;30.23;;
58017;SDS011;43810;50.860;19.226;2022-10-28T03:17:33;54.88;;;27.58;;
58017;SDS011;43810;50.860;19.226;2022-10-28T03:19:59;58.55;;;28.58;;
58017;SDS011;43810;50.860;19.226;2022-10-28T03:22:24;54.72;;;29.13;;
58017;SDS011;43810;50.860;19.226;2022-10-28T03:24:50;54.63;;;28.55;;
58017;SDS011;43810;50.860;19.226;2022-10-28T03:27:16;70.45;;;29.60;;
58017;SDS011;43810;50.860;19.226;2022-10-28T03:29:42;60.70;;;30.75;;
58017;SDS011;43810;50.860;19.226;2022-10-28T03:32:07;69.43;;;30.95;;
58017;SDS011;43810;50.860;19.226;2022-10-28T03:34:33;69.70;;;33.00;;
58017;SDS011;43810;50.860;19.226;2022-10-28T03:36:59;60.75;;;31.45;;
58017;SDS011;43810;50.860;19.226;2022-10-28T03:39:24;62.85;;;31.38;;
58017;SDS011;43810;50.860;19.226;2022-10-28T03:41:50;62.60;;;32.58;;
58017;SDS011;43810;50.860;19.226;2022-10-28T03:44:16;72.65;;;34.40;;
58017;SDS011;43810;50.860;19.226;2022-10-28T03:46:41;76.60;;;34.45;;
58017;SDS011;43810;50.860;19.226;2022-10-28T03:49:07;71.32;;;33.83;;
58017;SDS011;43810;50.860;19.226;2022-10-28T03:51:33;75.03;;;33.60;;
58017;SDS011;43810;50.860;19.226;2022-10-28T03:53:59;67.63;;;33.40;;
58017;SDS011;43810;50.860;19.226;2022-10-28T03:56:24;67.90;;;34.72;;
58017;SDS011;43810;50.860;19.226;2022-10-28T03:58:50;74.10;;;33.90;;
58017;SDS011;43810;50.860;19.226;2022-10-28T04:01:16;74.88;;;36.55;;
58017;SDS011;43810;50.860;19.226;2022-10-28T04:03:42;73.88;;;35.50;;
58017;SDS011;43810;50.860;19.226;2022-10-28T04:06:07;73.95;;;34.42;;
58017;SDS011;43810;50.860;19.226;2022-10-28T04:08:35;67.30;;;33.00;;
58017;SDS011;43810;50.860;19.226;2022-10-28T04:11:01;68.38;;;34.58;;
58017;SDS011;43810;50.860;19.226;2022-10-28T04:13:28;64.25;;;32.47;;
58017;SDS011;43810;50.860;19.226;2022-10-28T04:15:53;64.38;;;31.95;;
58017;SDS011;43810;50.860;19.226;2022-10-28T04:18:19;73.68;;;33.63;;
58017;SDS011;43810;50.860;19.226;2022-10-28T04:20:45;75.30;;;35.55;;
58017;SDS011;43810;50.860;19.226;2022-10-28T04:23:15;66.25;;;32.33;;
58017;SDS011;43810;50.860;19.226;2022-10-28T04:25:42;70.22;;;32.15;;
58017;SDS011;43810;50.860;19.226;2022-10-28T04:28:08;68.50;;;33.83;;
58017;SDS011;43810;50.860;19.226;2022-10-28T04:30:34;69.18;;;34.30;;
58017;SDS011;43810;50.860;19.226;2022-10-28T04:33:00;76.55;;;35.72;;
58017;SDS011;43810;50.860;19.226;2022-10-28T04:35:25;79.25;;;36.00;;
58017;SDS011;43810;50.860;19.226;2022-10-28T04:37:51;70.70;;;33.42;;
58017;SDS011;43810;50.860;19.226;2022-10-28T04:40:17;61.88;;;32.58;;
58017;SDS011;43810;50.860;19.226;2022-10-28T04:42:43;80.53;;;37.67;;
58017;SDS011;43810;50.860;19.226;2022-10-28T04:45:09;81.93;;;36.08;;
58017;SDS011;43810;50.860;19.226;2022-10-28T04:47:35;78.50;;;37.25;;
58017;SDS011;43810;50.860;19.226;2022-10-28T04:50:01;77.90;;;36.95;;
58017;SDS011;43810;50.860;19.226;2022-10-28T04:52:27;79.15;;;38.22;;
58017;SDS011;43810;50.860;19.226;2022-10-28T04:54:54;76.18;;;37.15;;
58017;SDS011;43810;50.860;19.226;2022-10-28T04:57:19;82.47;;;37.15;;
58017;SDS011;43810;50.860;19.226;2022-10-28T04:59:45;73.05;;;34.42;;
58017;SDS011;43810;50.860;19.226;2022-10-28T05:02:11;68.38;;;34.47;;
58017;SDS011;43810;50.860;19.226;2022-10-28T05:04:37;87.70;;;39.00;;
58017;SDS011;43810;50.860;19.226;2022-10-28T05:07:02;76.28;;;34.47;;
58017;SDS011;43810;50.860;19.226;2022-10-28T05:09:28;63.28;;;33.53;;
58017;SDS011;43810;50.860;19.226;2022-10-28T05:11:55;63.42;;;33.17;;
58017;SDS011;43810;50.860;19.226;2022-10-28T05:14:20;81.22;;;37.28;;
58017;SDS011;43810;50.860;19.226;2022-10-28T05:16:46;82.30;;;40.13;;
58017;SDS011;43810;50.860;19.226;2022-10-28T05:19:12;78.30;;;38.55;;
58017;SDS011;43810;50.860;19.226;2022-10-28T05:21:38;79.25;;;36.95;;
58017;SDS011;43810;50.860;19.226;2022-10-28T05:24:04;70.93;;;33.72;;
58017;SDS011;43810;50.860;19.226;2022-10-28T05:26:30;66.35;;;33.90;;
58017;SDS011;43810;50.860;19.226;2022-10-28T05:28:56;84.57;;;37.47;;
58017;SDS011;43810;50.860;19.226;2022-10-28T05:31:22;75.60;;;34.47;;
58017;SDS011;43810;50.860;19.226;2022-10-28T05:33:47;85.03;;;38.50;;
58017;SDS011;43810;50.860;19.226;2022-10-28T05:36:13;80.45;;;36.35;;
58017;SDS011;43810;50.860;19.226;2022-10-28T05:38:39;72.60;;;34.17;;
58017;SDS011;43810;50.860;19.226;2022-10-28T05:41:06;95.10;;;38.63;;
58017;SDS011;43810;50.860;19.226;2022-10-28T05:43:32;77.50;;;35.78;;
58017;SDS011;43810;50.860;19.226;2022-10-28T05:45:58;79.25;;;36.35;;
58017;SDS011;43810;50.860;19.226;2022-10-28T05:48:24;65.95;;;31.98;;
58017;SDS011;43810;50.860;19.226;2022-10-28T05:50:50;69.68;;;35.08;;
58017;SDS011;43810;50.860;19.226;2022-10-28T05:53:15;70.30;;;34.30;;
58017;SDS011;43810;50.860;19.226;2022-10-28T05:55:41;74.22;;;32.55;;
58017;SDS011;43810;50.860;19.226;2022-10-28T05:58:07;67.93;;;31.42;;
58017;SDS011;43810;50.860;19.226;2022-10-28T06:00:34;66.28;;;30.63;;
58017;SDS011;43810;50.860;19.226;2022-10-28T06:03:04;60.20;;;30.80;;
58017;SDS011;43810;50.860;19.226;2022-10-28T06:05:38;82.30;;;34.78;;
58017;SDS011;43810;50.860;19.226;2022-10-28T06:08:06;80.70;;;37.03;;
58017;SDS011;43810;50.860;19.226;2022-10-28T06:10:32;75.13;;;34.92;;
58017;SDS011;43810;50.860;19.226;2022-10-28T06:12:58;65.13;;;32.17;;
58017;SDS011;43810;50.860;19.226;2022-10-28T06:15:24;63.05;;;31.70;;
58017;SDS011;43810;50.860;19.226;2022-10-28T06:17:50;75.88;;;33.47;;
58017;SDS011;43810;50.860;19.226;2022-10-28T06:20:16;69.20;;;33.58;;
58017;SDS011;43810;50.860;19.226;2022-10-28T06:22:49;61.03;;;31.58;;
58017;SDS011;43810;50.860;19.226;2022-10-28T06:25:20;56.50;;;28.55;;
58017;SDS011;43810;50.860;19.226;2022-10-28T06:27:53;60.17;;;27.98;;
58017;SDS011;43810;50.860;19.226;2022-10-28T06:30:23;67.57;;;30.85;;
58017;SDS011;43810;50.860;19.226;2022-10-28T06:32:51;55.70;;;26.65;;
58017;SDS011;43810;50.860;19.226;2022-10-28T06:35:17;50.80;;;27.38;;
58017;SDS011;43810;50.860;19.226;2022-10-28T06:37:43;49.85;;;25.65;;
58017;SDS011;43810;50.860;19.226;2022-10-28T06:40:10;60.85;;;28.00;;
58017;SDS011;43810;50.860;19.226;2022-10-28T06:42:35;59.00;;;28.85;;
58017;SDS011;43810;50.860;19.226;2022-10-28T06:45:01;61.20;;;28.55;;
58017;SDS011;43810;50.860;19.226;2022-10-28T06:47:27;63.67;;;28.73;;
58017;SDS011;43810;50.860;19.226;2022-10-28T06:49:53;51.90;;;28.20;;
58017;SDS011;43810;50.860;19.226;2022-10-28T06:52:19;71.78;;;32.20;;
58017;SDS011;43810;50.860;19.226;2022-10-28T06:54:45;73.22;;;33.25;;
58017;SDS011;43810;50.860;19.226;2022-10-28T06:57:11;63.50;;;28.50;;
58017;SDS011;43810;50.860;19.226;2022-10-28T06:59:36;51.90;;;28.23;;
58017;SDS011;43810;50.860;19.226;2022-10-28T07:02:05;56.22;;;26.38;;
58017;SDS011;43810;50.860;19.226;2022-10-28T07:04:31;53.40;;;26.65;;
58017;SDS011;43810;50.860;19.226;2022-10-28T07:06:57;55.70;;;26.52;;
58017;SDS011;43810;50.860;19.226;2022-10-28T07:09:23;42.25;;;24.58;;
58017;SDS011;43810;50.860;19.226;2022-10-28T07:11:49;61.08;;;26.65;;
58017;SDS011;43810;50.860;19.226;2022-10-28T07:14:15;51.88;;;27.27;;
58017;SDS011;43810;50.860;19.226;2022-10-28T07:16:41;49.50;;;25.08;;
58017;SDS011;43810;50.860;19.226;2022-10-28T07:19:07;44.13;;;23.42;;
58017;SDS011;43810;50.860;19.226;2022-10-28T07:21:33;49.63;;;25.13;;
58017;SDS011;43810;50.860;19.226;2022-10-28T07:23:59;50.85;;;25.85;;
58017;SDS011;43810;50.860;19.226;2022-10-28T07:26:25;51.85;;;25.92;;
58017;SDS011;43810;50.860;19.226;2022-10-28T07:28:52;50.65;;;25.67;;
58017;SDS011;43810;50.860;19.226;2022-10-28T07:31:18;45.83;;;24.13;;
58017;SDS011;43810;50.860;19.226;2022-10-28T07:33:49;49.15;;;25.58;;
58017;SDS011;43810;50.860;19.226;2022-10-28T07:36:16;53.72;;;24.35;;
58017;SDS011;43810;50.860;19.226;2022-10-28T07:38:42;51.35;;;24.67;;
58017;SDS011;43810;50.860;19.226;2022-10-28T07:41:08;46.33;;;24.40;;
58017;SDS011;43810;50.860;19.226;2022-10-28T07:43:35;50.70;;;24.67;;
58017;SDS011;43810;50.860;19.226;2022-10-28T07:46:03;44.10;;;21.92;;
58017;SDS011;43810;50.860;19.226;2022-10-28T07:48:31;43.70;;;22.38;;
58017;SDS011;43810;50.860;19.226;2022-10-28T07:51:01;50.67;;;22.50;;
58017;SDS011;43810;50.860;19.226;2022-10-28T07:55:57;40.90;;;21.50;;
58017;SDS011;43810;50.860;19.226;2022-10-28T07:58:28;35.67;;;20.65;;
58017;SDS011;43810;50.860;19.226;2022-10-28T08:00:54;44.83;;;21.23;;
58017;SDS011;43810;50.860;19.226;2022-10-28T08:03:20;40.13;;;21.70;;
58017;SDS011;43810;50.860;19.226;2022-10-28T08:05:46;43.42;;;19.60;;
58017;SDS011;43810;50.860;19.226;2022-10-28T08:08:12;34.80;;;19.52;;
58017;SDS011;43810;50.860;19.226;2022-10-28T08:10:37;37.83;;;19.75;;
58017;SDS011;43810;50.860;19.226;2022-10-28T08:13:03;35.53;;;19.25;;
58017;SDS011;43810;50.860;19.226;2022-10-28T08:15:31;34.20;;;18.38;;
58017;SDS011;43810;50.860;19.226;2022-10-28T08:17:57;34.97;;;16.90;;
58017;SDS011;43810;50.860;19.226;2022-10-28T08:20:23;31.17;;;15.93;;
58017;SDS011;43810;50.860;19.226;2022-10-28T08:22:49;27.48;;;16.48;;
58017;SDS011;43810;50.860;19.226;2022-10-28T08:25:14;28.38;;;15.35;;
58017;SDS011;43810;50.860;19.226;2022-10-28T08:27:40;25.30;;;14.85;;
58017;SDS011;43810;50.860;19.226;2022-10-28T08:30:06;24.92;;;13.48;;
58017;SDS011;43810;50.860;19.226;2022-10-28T08:32:36;22.40;;;12.60;;
58017;SDS011;43810;50.860;19.226;2022-10-28T08:35:02;21.60;;;12.52;;
58017;SDS011;43810;50.860;19.226;2022-10-28T08:37:29;20.88;;;13.15;;
58017;SDS011;43810;50.860;19.226;2022-10-28T08:39:54;24.35;;;12.75;;
58017;SDS011;43810;50.860;19.226;2022-10-28T08:47:44;18.67;;;11.60;;
58017;SDS011;43810;50.860;19.226;2022-10-28T08:50:20;19.50;;;11.68;;
58017;SDS011;43810;50.860;19.226;2022-10-28T08:55:25;19.60;;;10.93;;
58017;SDS011;43810;50.860;19.226;2022-10-28T09:00:43;15.02;;;10.18;;
58017;SDS011;43810;50.860;19.226;2022-10-28T09:03:18;19.73;;;10.10;;
58017;SDS011;43810;50.860;19.226;2022-10-28T09:05:47;17.87;;;10.30;;
58017;SDS011;43810;50.860;19.226;2022-10-28T09:08:22;18.13;;;10.55;;
58017;SDS011;43810;50.860;19.226;2022-10-28T09:16:32;13.70;;;8.20;;
58017;SDS011;43810;50.860;19.226;2022-10-28T09:24:53;10.90;;;7.05;;
58017;SDS011;43810;50.860;19.226;2022-10-28T09:27:30;13.80;;;8.02;;
58017;SDS011;43810;50.860;19.226;2022-10-28T09:32:59;11.98;;;6.80;;
58017;SDS011;43810;50.860;19.226;2022-10-28T09:35:27;10.48;;;6.35;;
58017;SDS011;43810;50.860;19.226;2022-10-28T09:40:49;10.30;;;6.15;;
58017;SDS011;43810;50.860;19.226;2022-10-28T09:43:32;12.20;;;7.05;;
58017;SDS011;43810;50.860;19.226;2022-10-28T09:46:05;9.90;;;5.80;;
58017;SDS011;43810;50.860;19.226;2022-10-28T09:48:36;12.75;;;6.32;;
58017;SDS011;43810;50.860;19.226;2022-10-28T09:51:03;10.95;;;6.10;;
58017;SDS011;43810;50.860;19.226;2022-10-28T09:56:31;10.65;;;6.00;;
58017;SDS011;43810;50.860;19.226;2022-10-28T09:58:57;7.63;;;5.70;;
58017;SDS011;43810;50.860;19.226;2022-10-28T10:01:29;8.77;;;6.13;;
58017;SDS011;43810;50.860;19.226;2022-10-28T10:03:58;10.77;;;5.70;;
58017;SDS011;43810;50.860;19.226;2022-10-28T10:06:36;13.18;;;7.25;;
58017;SDS011;43810;50.860;19.226;2022-10-28T10:09:09;11.27;;;6.50;;
58017;SDS011;43810;50.860;19.226;2022-10-28T10:11:43;8.93;;;6.35;;
58017;SDS011;43810;50.860;19.226;2022-10-28T10:14:14;10.32;;;6.18;;
58017;SDS011;43810;50.860;19.226;2022-10-28T10:16:58;9.23;;;5.57;;
58017;SDS011;43810;50.860;19.226;2022-10-28T10:19:26;12.15;;;6.45;;
58017;SDS011;43810;50.860;19.226;2022-10-28T10:21:53;9.70;;;5.80;;
58017;SDS011;43810;50.860;19.226;2022-10-28T10:24:27;9.10;;;6.28;;
58017;SDS011;43810;50.860;19.226;2022-10-28T10:29:35;9.88;;;6.38;;
58017;SDS011;43810;50.860;19.226;2022-10-28T10:34:36;14.18;;;7.45;;
58017;SDS011;43810;50.860;19.226;2022-10-28T10:37:12;13.05;;;6.70;;
58017;SDS011;43810;50.860;19.226;2022-10-28T10:39:43;13.63;;;6.70;;
58017;SDS011;43810;50.860;19.226;2022-10-28T10:42:15;10.82;;;6.22;;
58017;SDS011;43810;50.860;19.226;2022-10-28T10:44:44;12.95;;;6.32;;
58017;SDS011;43810;50.860;19.226;2022-10-28T10:47:20;11.52;;;6.63;;
58017;SDS011;43810;50.860;19.226;2022-10-28T10:49:45;10.20;;;6.05;;
58017;SDS011;43810;50.860;19.226;2022-10-28T10:52:16;13.68;;;6.55;;
58017;SDS011;43810;50.860;19.226;2022-10-28T10:55:01;12.98;;;6.72;;
58017;SDS011;43810;50.860;19.226;2022-10-28T10:57:30;10.88;;;6.15;;
58017;SDS011;43810;50.860;19.226;2022-10-28T10:59:58;9.60;;;6.07;;
58017;SDS011;43810;50.860;19.226;2022-10-28T11:02:25;12.50;;;5.88;;
58017;SDS011;43810;50.860;19.226;2022-10-28T11:04:56;12.60;;;6.00;;
58017;SDS011;43810;50.860;19.226;2022-10-28T11:09:52;9.18;;;4.68;;
58017;SDS011;43810;50.860;19.226;2022-10-28T11:12:26;8.52;;;4.53;;
58017;SDS011;43810;50.860;19.226;2022-10-28T11:14:56;7.00;;;4.30;;
58017;SDS011;43810;50.860;19.226;2022-10-28T11:17:25;9.18;;;4.35;;
58017;SDS011;43810;50.860;19.226;2022-10-28T11:19:52;8.35;;;4.38;;
58017;SDS011;43810;50.860;19.226;2022-10-28T11:33:18;9.63;;;4.22;;
58017;SDS011;43810;50.860;19.226;2022-10-28T11:42:20;6.80;;;4.10;;
58017;SDS011;43810;50.860;19.226;2022-10-28T11:44:38;6.68;;;4.13;;
58017;SDS011;43810;50.860;19.226;2022-10-28T11:56:35;8.48;;;4.55;;
58017;SDS011;43810;50.860;19.226;2022-10-28T12:05:18;4.95;;;3.70;;
58017;SDS011;43810;50.860;19.226;2022-10-28T12:14:09;7.43;;;4.22;;
58017;SDS011;43810;50.860;19.226;2022-10-28T12:16:48;5.90;;;4.07;;
58017;SDS011;43810;50.860;19.226;2022-10-28T12:19:16;9.43;;;4.60;;
58017;SDS011;43810;50.860;19.226;2022-10-28T12:24:33;6.80;;;4.47;;
58017;SDS011;43810;50.860;19.226;2022-10-28T12:27:03;8.95;;;5.18;;
58017;SDS011;43810;50.860;19.226;2022-10-28T12:29:39;7.43;;;4.30;;
58017;SDS011;43810;50.860;19.226;2022-10-28T12:32:10;9.55;;;5.40;;
58017;SDS011;43810;50.860;19.226;2022-10-28T12:34:44;11.88;;;6.45;;
58017;SDS011;43810;50.860;19.226;2022-10-28T12:39:44;7.50;;;4.28;;
58017;SDS011;43810;50.860;19.226;2022-10-28T12:42:58;11.13;;;5.05;;
58017;SDS011;43810;50.860;19.226;2022-10-28T12:45:12;6.65;;;4.93;;
58017;SDS011;43810;50.860;19.226;2022-10-28T12:55:58;18.55;;;7.22;;
58017;SDS011;43810;50.860;19.226;2022-10-28T12:58:33;12.18;;;5.97;;
58017;SDS011;43810;50.860;19.226;2022-10-28T13:01:07;10.40;;;5.20;;
58017;SDS011;43810;50.860;19.226;2022-10-28T13:03:38;7.60;;;4.03;;
58017;SDS011;43810;50.860;19.226;2022-10-28T13:09:09;8.93;;;4.72;;
58017;SDS011;43810;50.860;19.226;2022-10-28T13:17:50;11.27;;;5.18;;
58017;SDS011;43810;50.860;19.226;2022-10-28T13:26:33;14.85;;;5.63;;
58017;SDS011;43810;50.860;19.226;2022-10-28T13:29:02;11.32;;;5.78;;
58017;SDS011;43810;50.860;19.226;2022-10-28T13:31:35;16.33;;;6.32;;
58017;SDS011;43810;50.860;19.226;2022-10-28T13:34:03;15.60;;;6.72;;
58017;SDS011;43810;50.860;19.226;2022-10-28T13:36:30;22.55;;;8.25;;
58017;SDS011;43810;50.860;19.226;2022-10-28T13:39:04;16.35;;;6.50;;
58017;SDS011;43810;50.860;19.226;2022-10-28T13:49:24;6.47;;;4.60;;
58017;SDS011;43810;50.860;19.226;2022-10-28T13:57:14;8.55;;;5.10;;
58017;SDS011;43810;50.860;19.226;2022-10-28T13:59:50;9.13;;;4.65;;
58017;SDS011;43810;50.860;19.226;2022-10-28T14:02:19;9.20;;;4.30;;
58017;SDS011;43810;50.860;19.226;2022-10-28T14:05:00;8.25;;;4.93;;
58017;SDS011;43810;50.860;19.226;2022-10-28T14:07:30;8.25;;;4.78;;
58017;SDS011;43810;50.860;19.226;2022-10-28T14:10:21;10.23;;;4.60;;
58017;SDS011;43810;50.860;19.226;2022-10-28T14:15:38;5.68;;;4.20;;
58017;SDS011;43810;50.860;19.226;2022-10-28T14:50:49;15.80;;;7.70;;
58017;SDS011;43810;50.860;19.226;2022-10-28T14:53:04;17.95;;;7.22;;
58017;SDS011;43810;50.860;19.226;2022-10-28T14:55:36;13.80;;;6.25;;
58017;SDS011;43810;50.860;19.226;2022-10-28T15:00:42;16.60;;;8.05;;
58017;SDS011;43810;50.860;19.226;2022-10-28T15:03:13;20.30;;;7.93;;
58017;SDS011;43810;50.860;19.226;2022-10-28T15:05:39;18.05;;;7.93;;
58017;SDS011;43810;50.860;19.226;2022-10-28T15:08:05;14.95;;;5.82;;
58017;SDS011;43810;50.860;19.226;2022-10-28T15:10:34;13.43;;;5.75;;
58017;SDS011;43810;50.860;19.226;2022-10-28T15:12:59;14.32;;;5.50;;
58017;SDS011;43810;50.860;19.226;2022-10-28T15:15:27;10.25;;;5.65;;
58017;SDS011;43810;50.860;19.226;2022-10-28T15:17:55;20.70;;;8.85;;
58017;SDS011;43810;50.860;19.226;2022-10-28T15:20:23;11.90;;;6.07;;
58017;SDS011;43810;50.860;19.226;2022-10-28T15:22:50;17.17;;;7.25;;
58017;SDS011;43810;50.860;19.226;2022-10-28T15:25:18;12.55;;;6.45;;
58017;SDS011;43810;50.860;19.226;2022-10-28T15:27:46;11.95;;;5.15;;
58017;SDS011;43810;50.860;19.226;2022-10-28T15:30:23;11.38;;;5.93;;
58017;SDS011;43810;50.860;19.226;2022-10-28T15:32:51;10.35;;;5.57;;
58017;SDS011;43810;50.860;19.226;2022-10-28T15:40:47;11.57;;;5.72;;
58017;SDS011;43810;50.860;19.226;2022-10-28T15:43:18;13.73;;;5.68;;
58017;SDS011;43810;50.860;19.226;2022-10-28T15:45:46;14.55;;;6.47;;
58017;SDS011;43810;50.860;19.226;2022-10-28T15:48:12;15.38;;;7.60;;
58017;SDS011;43810;50.860;19.226;2022-10-28T15:50:43;14.77;;;6.97;;
58017;SDS011;43810;50.860;19.226;2022-10-28T15:55:35;16.50;;;7.32;;
58017;SDS011;43810;50.860;19.226;2022-10-28T16:00:53;17.40;;;7.73;;
58017;SDS011;43810;50.860;19.226;2022-10-28T16:03:24;15.45;;;7.30;;
58017;SDS011;43810;50.860;19.226;2022-10-28T16:05:55;16.05;;;8.90;;
58017;SDS011;43810;50.860;19.226;2022-10-28T16:08:26;28.38;;;11.57;;
58017;SDS011;43810;50.860;19.226;2022-10-28T16:10:56;22.48;;;10.90;;
58017;SDS011;43810;50.860;19.226;2022-10-28T16:16:05;16.83;;;8.85;;
58017;SDS011;43810;50.860;19.226;2022-10-28T16:18:40;18.15;;;9.60;;
58017;SDS011;43810;50.860;19.226;2022-10-28T16:21:11;14.77;;;8.75;;
58017;SDS011;43810;50.860;19.226;2022-10-28T16:23:43;15.55;;;8.68;;
58017;SDS011;43810;50.860;19.226;2022-10-28T16:26:13;19.30;;;9.63;;
58017;SDS011;43810;50.860;19.226;2022-10-28T16:28:39;30.80;;;13.90;;
58017;SDS011;43810;50.860;19.226;2022-10-28T16:31:11;33.20;;;11.30;;
58017;SDS011;43810;50.860;19.226;2022-10-28T16:33:42;21.58;;;10.70;;
58017;SDS011;43810;50.860;19.226;2022-10-28T16:36:08;18.13;;;8.95;;
58017;SDS011;43810;50.860;19.226;2022-10-28T16:38:34;20.63;;;9.88;;
58017;SDS011;43810;50.860;19.226;2022-10-28T16:41:01;19.17;;;9.43;;
58017;SDS011;43810;50.860;19.226;2022-10-28T16:43:29;31.25;;;14.35;;
58017;SDS011;43810;50.860;19.226;2022-10-28T16:45:56;36.65;;;15.18;;
58017;SDS011;43810;50.860;19.226;2022-10-28T16:48:24;29.38;;;12.50;;
58017;SDS011;43810;50.860;19.226;2022-10-28T16:51:00;30.77;;;11.20;;
58017;SDS011;43810;50.860;19.226;2022-10-28T16:53:28;28.35;;;11.88;;
58017;SDS011;43810;50.860;19.226;2022-10-28T16:55:55;25.38;;;12.00;;
58017;SDS011;43810;50.860;19.226;2022-10-28T16:58:24;32.22;;;12.68;;
58017;SDS011;43810;50.860;19.226;2022-10-28T17:00:50;26.90;;;11.98;;
58017;SDS011;43810;50.860;19.226;2022-10-28T17:03:16;33.95;;;15.45;;
58017;SDS011;43810;50.860;19.226;2022-10-28T17:05:42;40.45;;;16.13;;
58017;SDS011;43810;50.860;19.226;2022-10-28T17:08:11;38.83;;;16.10;;
58017;SDS011;43810;50.860;19.226;2022-10-28T17:10:38;29.05;;;13.60;;
58017;SDS011;43810;50.860;19.226;2022-10-28T17:13:06;31.75;;;13.20;;
58017;SDS011;43810;50.860;19.226;2022-10-28T17:15:36;28.88;;;11.98;;
58017;SDS011;43810;50.860;19.226;2022-10-28T17:18:02;34.42;;;13.45;;
58017;SDS011;43810;50.860;19.226;2022-10-28T17:20:28;43.25;;;13.63;;
58017;SDS011;43810;50.860;19.226;2022-10-28T17:22:54;33.20;;;13.45;;
58017;SDS011;43810;50.860;19.226;2022-10-28T17:25:19;38.97;;;13.98;;
58017;SDS011;43810;50.860;19.226;2022-10-28T17:27:45;35.42;;;14.65;;
58017;SDS011;43810;50.860;19.226;2022-10-28T17:30:14;36.95;;;15.55;;
58017;SDS011;43810;50.860;19.226;2022-10-28T17:32:41;29.60;;;12.82;;
58017;SDS011;43810;50.860;19.226;2022-10-28T17:35:07;35.72;;;14.00;;
58017;SDS011;43810;50.860;19.226;2022-10-28T17:37:33;37.78;;;16.88;;
58017;SDS011;43810;50.860;19.226;2022-10-28T17:39:59;38.47;;;16.73;;
58017;SDS011;43810;50.860;19.226;2022-10-28T17:42:24;33.40;;;14.95;;
58017;SDS011;43810;50.860;19.226;2022-10-28T17:44:50;26.27;;;12.82;;
58017;SDS011;43810;50.860;19.226;2022-10-28T17:47:16;33.53;;;14.13;;
58017;SDS011;43810;50.860;19.226;2022-10-28T17:49:42;29.17;;;11.73;;
58017;SDS011;43810;50.860;19.226;2022-10-28T17:52:07;23.88;;;11.48;;
58017;SDS011;43810;50.860;19.226;2022-10-28T17:54:33;24.75;;;11.23;;
58017;SDS011;43810;50.860;19.226;2022-10-28T17:57:02;34.33;;;13.18;;
58017;SDS011;43810;50.860;19.226;2022-10-28T17:59:28;36.42;;;14.02;;
58017;SDS011;43810;50.860;19.226;2022-10-28T18:01:54;34.25;;;13.63;;
58017;SDS011;43810;50.860;19.226;2022-10-28T18:04:19;24.35;;;12.90;;
58017;SDS011;43810;50.860;19.226;2022-10-28T18:06:51;28.73;;;11.80;;
58017;SDS011;43810;50.860;19.226;2022-10-28T18:09:20;28.20;;;12.55;;